Latest Weather Observations for Armidale Airport

IDN60801

Issued at 9:52 am EST Monday 15 July 2024 (issued every 10 minutes, with the page automatically refreshed every 10 minutes)

About weather observations | Map of weather stations | Latest weather observations for NSW | Other Formats
Station Details ID: 056238 Name: ARMIDALE AIRPORT AWS Lat: -30.53 Lon: 151.62 Height: 1079.0 m
Data from the previous 72 hours. | See also: Recent months at Armidale Airport
Date/Time
EST
Temp
°C
App
Temp
°C
Dew
Point
°C
Rel
Hum
%
Delta-T
°C
Wind Press
QNH
hPa
Press
MSL
hPa
Rain since
9am
mm
Dir  Spd
km/h
Gust
km/h
Spd
kts
Gust
kts
15/09:42am 3.0 -3.4 0.7 85 0.9 W 24 32 13 17 1011.0 1011.0 0.0
15/09:30am 3.1 -2.9 0.8 85 0.9 W 22 30 12 16 1011.1 1011.1 0.0
15/09:00am 2.9 -2.7 1.4 90 0.6 W 20 30 11 16 1010.9 1010.8 0.8
15/08:30am 2.5 -3.5 1.3 92 0.5 W 22 30 12 16 1010.8 1010.7 0.8
15/08:00am 2.7 -2.6 2.0 95 0.3 W 19 22 10 12 1010.7 1010.6 0.8
15/07:30am 2.3 -3.1 1.4 94 0.4 W 19 28 10 15 1010.6 1010.5 0.8
15/07:00am 2.0 -3.0 1.3 95 0.3 W 17 24 9 13 1010.5 1010.4 0.8
15/06:30am 2.3 -2.6 1.7 96 0.2 WSW 17 26 9 14 1010.4 1010.3 0.8
15/06:00am 2.4 -2.5 1.8 96 0.3 WSW 17 22 9 12 1010.0 1009.9 0.8
15/05:30am 2.5 -2.4 1.9 96 0.3 WSW 17 22 9 12 1009.9 1009.8 0.8
15/05:00am 2.5 -2.8 1.9 96 0.3 W 19 24 10 13 1009.8 1009.7 0.4
15/04:55am 2.5 -2.8 1.9 96 0.3 WSW 19 26 10 14 1009.8 1009.7 0.4
15/04:35am 2.6 -2.3 2.0 96 0.3 W 17 28 9 15 1009.8 1009.7 0.4
15/04:30am 2.6 -2.3 2.0 96 0.3 WSW 17 24 9 13 1009.7 1009.6 0.2
15/04:00am 2.6 -2.9 1.9 95 0.3 W 20 26 11 14 1009.9 1009.8 0.0
15/03:49am 2.6 -2.3 2.0 96 0.3 W 17 24 9 13 1009.9 1009.8 0.0
15/03:33am 2.6 -2.9 2.0 96 0.3 W 20 30 11 16 1010.1 1010.0 0.0
15/03:30am 2.7 -3.1 2.1 96 0.3 W 22 30 12 16 1010.0 1009.9 0.0
15/03:00am 2.7 -2.2 2.1 96 0.3 W 17 22 9 12 1010.3 1010.2 0.0
15/02:30am 2.8 -2.1 2.1 95 0.3 WNW 17 22 9 12 1010.5 1010.4 0.0
15/02:00am 2.9 -2.4 1.9 93 0.4 W 19 26 10 14 1010.8 1010.7 0.0
15/01:30am 3.0 -2.5 2.0 93 0.4 W 20 26 11 14 1010.9 1010.8 0.0
15/01:00am 3.0 -3.3 1.8 92 0.5 W 24 32 13 17 1011.1 1011.1 0.0
15/12:30am 3.0 -2.5 1.8 92 0.5 W 20 28 11 15 1011.4 1011.3 0.0
15/12:00am 3.0 -2.5 1.8 92 0.5 W 20 30 11 16 1011.6 1011.5 0.0
 
Date/Time
EST
Temp
°C
App
Temp
°C
Dew
Point
°C
Rel
Hum
%
Delta-T
°C
Wind Press
QNH
hPa
Press
MSL
hPa
Rain since
9am
mm
Dir  Spd
km/h
Gust
km/h
Spd
kts
Gust
kts
14/11:30pm 3.1 -3.1 2.1 93 0.4 W 24 30 13 16 1012.0 1012.0 0.0
14/11:00pm 2.7 -2.8 2.0 95 0.3 W 20 26 11 14 1012.3 1012.2 0.0
14/10:30pm 2.5 -2.8 1.6 94 0.4 W 19 26 10 14 1012.4 1012.3 0.0
14/10:00pm 3.0 -2.6 1.5 90 0.6 W 20 26 11 14 1012.5 1012.4 0.0
14/09:40pm 3.5 -2.4 1.4 86 0.9 W 22 28 12 15 1012.5 1012.4 0.0
14/09:30pm 3.6 -1.8 1.3 85 1.0 W 19 26 10 14 1012.5 1012.4 0.0
14/09:00pm 3.9 -2.1 1.3 83 1.1 WSW 22 28 12 15 1012.5 1012.4 0.0
14/08:30pm 3.4 -2.1 0.8 83 1.1 WSW 19 24 10 13 1012.5 1012.4 0.0
14/08:00pm 2.5 -2.4 -0.8 79 1.3 WSW 15 22 8 12 1012.6 1012.6 0.0
14/07:30pm 2.6 -2.3 -0.7 79 1.3 WSW 15 20 8 11 1012.5 1012.4 0.0
14/07:00pm 3.1 -2.2 -0.7 76 1.5 WSW 17 20 9 11 1012.4 1012.3 0.0
14/06:30pm 3.5 -1.0 -0.3 76 1.5 WSW 13 19 7 10 1012.6 1012.6 0.0
14/06:00pm 3.7 -1.9 -0.3 75 1.6 WSW 19 24 10 13 1012.5 1012.4 0.0
14/05:30pm 4.0 -3.8 -0.8 71 1.9 W 30 39 16 21 1012.4 1012.3 0.0
14/05:00pm 4.4 -2.5 0.0 73 1.8 W 26 35 14 19 1012.1 1012.1 0.0
14/04:30pm 5.0 -2.2 0.9 75 1.7 WSW 28 39 15 21 1011.9 1011.9 0.0
14/04:00pm 6.3 -1.6 1.0 69 2.3 W 32 37 17 20 1011.5 1011.4 0.0
14/03:30pm 6.7 -0.5 0.6 65 2.6 W 28 37 15 20 1011.3 1011.2 0.0
14/03:00pm 8.2 1.1 1.1 61 3.1 W 28 39 15 21 1011.1 1011.1 0.0
14/02:30pm 8.4 1.3 1.6 62 3.0 W 28 35 15 19 1010.9 1010.8 0.0
14/02:00pm 7.9 0.7 0.6 60 3.1 W 28 37 15 20 1010.9 1010.8 0.0
14/01:30pm 8.2 0.2 0.7 59 3.2 W 32 43 17 23 1011.1 1011.1 0.0
14/01:00pm 8.6 2.3 1.5 61 3.1 W 24 33 13 18 1011.1 1011.1 0.0
14/12:30pm 7.9 1.6 1.5 64 2.8 W 24 37 13 20 1011.8 1011.8 0.0
14/12:00pm 8.0 2.1 2.0 66 2.7 W 22 28 12 15 1012.1 1012.1 0.0
14/11:30am 6.8 0.9 1.9 71 2.1 WNW 22 30 12 16 1012.7 1012.7 0.0
14/11:15am 6.5 0.5 1.0 68 2.3 W 22 32 12 17 1013.0 1013.0 0.0
14/11:04am 6.5 1.1 2.2 74 1.9 W 20 30 11 16 1013.1 1013.1 0.0
14/11:00am 6.3 0.4 1.6 72 2.0 W 22 30 12 16 1013.3 1013.2 0.0
14/10:59am 6.4 0.5 1.9 73 2.0 W 22 30 12 16 1013.3 1013.2 0.0
14/10:39am 6.5 0.4 2.8 77 1.6 W 24 30 13 16 1013.7 1013.7 0.0
14/10:30am 5.3 -1.0 1.8 78 1.5 W 24 32 13 17 1013.7 1013.7 0.0
14/10:00am 5.4 -1.2 1.9 78 1.5 W 26 32 14 17 1014.0 1014.0 0.0
14/09:58am 5.2 -1.5 1.5 77 1.6 W 26 33 14 18 1013.9 1013.9 0.0
14/09:30am 4.8 -1.5 1.8 81 1.3 W 24 33 13 18 1014.1 1014.1 0.0
14/09:11am 3.9 -2.1 1.3 83 1.1 W 22 33 12 18 1014.0 1014.0 0.0
14/09:00am 3.7 -1.9 1.3 84 1.0 W 20 28 11 15 1014.0 1014.0 0.0
14/08:50am 3.4 -2.6 1.0 84 1.0 W 22 28 12 15 1013.9 1013.9 0.0
14/08:30am 3.1 -3.6 1.2 87 0.8 W 26 33 14 18 1013.7 1013.7 0.0
14/08:06am 2.5 -3.6 0.7 88 0.7 W 22 28 12 15 1013.5 1013.5 0.0
14/08:00am 2.4 -3.7 0.5 87 0.8 W 22 30 12 16 1013.5 1013.5 0.0
14/07:56am 2.3 -3.4 0.4 87 0.8 W 20 30 11 16 1013.4 1013.3 0.0
14/07:30am 2.0 -3.8 0.2 88 0.7 W 20 26 11 14 1013.1 1013.1 0.0
14/07:00am 1.5 -3.2 0.6 94 0.4 W 15 19 8 10 1013.4 1013.3 0.0
14/06:30am 2.3 -3.4 0.7 89 0.6 W 20 26 11 14 1013.3 1013.2 0.0
14/06:00am 2.7 -2.9 0.9 88 0.7 W 20 26 11 14 1013.1 1013.1 0.0
14/05:30am 2.6 -2.5 1.0 89 0.7 W 17 24 9 13 1012.8 1012.8 0.0
14/05:00am 3.0 -2.6 1.4 89 0.7 W 20 28 11 15 1012.6 1012.6 0.0
14/04:30am 3.1 -1.8 2.2 94 0.4 W 17 24 9 13 1012.4 1012.3 0.0
14/04:00am 3.2 -2.2 2.2 93 0.4 W 20 28 11 15 1012.5 1012.4 0.0
14/03:30am 3.1 -2.4 2.1 93 0.4 W 20 30 11 16 1012.6 1012.6 0.0
14/03:26am 3.2 -2.0 2.5 95 0.3 W 19 26 10 14 1012.6 1012.6 0.0
14/03:00am 3.1 -1.8 1.9 92 0.5 W 17 24 9 13 1012.6 1012.6 0.0
14/02:30am 3.6 -1.2 2.4 92 0.5 W 17 24 9 13 1012.7 1012.7 0.0
14/02:00am 3.9 -1.3 2.6 91 0.6 W 19 24 10 13 1012.7 1012.7 0.0
14/01:30am 4.1 -1.6 2.6 90 0.6 WSW 22 30 12 16 1012.8 1012.8 0.0
14/01:00am 4.3 -1.0 2.8 90 0.7 W 20 28 11 15 1013.0 1013.0 0.0
14/12:44am 4.3 -1.4 2.8 90 0.7 W 22 28 12 15 1012.9 1012.9 0.0
14/12:30am 4.4 -0.8 3.4 93 0.4 W 20 26 11 14 1012.9 1012.9 0.0
14/12:00am 4.4 -0.8 3.5 94 0.4 W 20 26 11 14 1012.9 1012.9 0.0
 
Date/Time
EST
Temp
°C
App
Temp
°C
Dew
Point
°C
Rel
Hum
%
Delta-T
°C
Wind Press
QNH
hPa
Press
MSL
hPa
Rain since
9am
mm
Dir  Spd
km/h
Gust
km/h
Spd
kts
Gust
kts
13/11:30pm 4.5 -0.5 3.5 93 0.4 W 19 28 10 15 1013.4 1013.3 0.0
13/11:00pm 4.7 0.1 3.8 94 0.4 WSW 17 22 9 12 1013.6 1013.6 0.0
13/10:30pm 4.7 -0.5 3.8 94 0.4 W 20 26 11 14 1013.7 1013.7 0.0
13/10:00pm 4.9 -0.1 3.7 92 0.5 W 19 28 10 15 1013.6 1013.6 0.0
13/09:30pm 5.1 0.1 3.8 91 0.6 W 19 28 10 15 1013.6 1013.6 0.0
13/09:00pm 4.9 1.1 4.0 94 0.4 W 13 17 7 9 1013.4 1013.3 0.0
13/08:43pm 4.3 0.8 3.7 96 0.3 W 11 15 6 8 1013.3 1013.2 0.0
13/08:30pm 3.6 -0.4 2.6 93 0.4 W 13 15 7 8 1012.8 1012.8 0.0
13/08:00pm 5.1 0.5 3.6 90 0.7 W 17 20 9 11 1012.9 1012.9 0.0
13/07:30pm 5.2 0.7 4.0 92 0.5 WNW 17 20 9 11 1012.7 1012.7 0.0
13/07:00pm 5.1 1.7 4.1 93 0.5 W 11 15 6 8 1012.8 1012.8 0.0
13/06:30pm 4.9 1.5 3.9 93 0.4 W 11 15 6 8 1012.7 1012.7 0.0
13/06:00pm 4.7 0.4 3.2 90 0.7 WSW 15 19 8 10 1012.4 1012.3 0.0
13/05:30pm 5.3 1.3 2.8 84 1.1 W 13 13 7 7 1012.0 1012.0 0.0
13/05:00pm 6.1 2.1 2.9 80 1.4 WSW 13 17 7 9 1011.8 1011.8 0.0
13/04:30pm 6.7 2.4 3.0 77 1.7 SW 15 19 8 10 1011.7 1011.6 0.0
13/04:00pm 8.2 2.6 3.7 73 2.1 SW 22 28 12 15 1011.6 1011.5 0.0
13/03:30pm 8.2 3.8 4.8 79 1.6 W 17 22 9 12 1011.3 1011.2 0.0
13/03:00pm 8.9 3.6 3.1 67 2.7 WSW 20 26 11 14 1011.0 1011.0 0.0
13/02:30pm 9.9 5.8 4.5 69 2.6 WSW 15 22 8 12 1010.9 1010.8 0.0
13/02:00pm 8.6 4.3 5.2 79 1.6 W 17 22 9 12 1010.9 1010.8 0.0
13/01:30pm 8.1 3.3 4.7 79 1.6 W 19 22 10 12 1010.9 1010.8 0.0
13/01:12pm 8.9 4.5 4.7 75 2.0 W 17 24 9 13 1010.8 1010.7 0.0
13/01:00pm 8.9 4.1 5.5 79 1.6 W 20 26 11 14 1010.9 1010.8 0.0
13/12:30pm 8.9 4.0 4.9 76 1.9 W 20 30 11 16 1011.1 1011.1 0.0
13/12:00pm 8.8 3.9 5.2 78 1.7 WSW 20 28 11 15 1011.5 1011.4 0.0
13/11:30am 8.4 3.4 4.4 76 1.9 WSW 20 30 11 16 1011.7 1011.6 0.0
13/11:00am 7.3 2.9 4.8 84 1.2 W 17 20 9 11 1011.9 1011.9 0.0
13/10:30am 6.9 3.2 4.7 86 1.0 WNW 13 17 7 9 1012.0 1012.0 0.0
13/10:00am 6.6 3.0 4.9 89 0.8 WNW 13 19 7 10 1012.6 1012.6 0.0
13/09:30am 6.2 3.0 5.0 92 0.6 WSW 11 17 6 9 1012.8 1012.8 0.0
13/09:00am 5.7 2.4 4.8 94 0.4 WSW 11 13 6 7 1012.6 1012.6 0.2
13/08:30am 5.5 1.9 4.9 96 0.3 WSW 13 15 7 8 1012.3 1012.2 0.2
13/08:05am 5.1 1.8 4.8 98 0.1 WSW 11 15 6 8 1012.3 1012.2 0.2
13/08:00am 5.0 1.3 4.7 98 0.1 W 13 15 7 8 1012.3 1012.2 0.2
13/07:30am 4.2 1.5 3.9 98 0.1 W 7 9 4 5 1011.9 1011.9 0.2
13/07:00am 4.0 1.5 3.7 98 0.1 W 6 7 3 4 1011.5 1011.4 0.2
13/06:54am 3.9 1.2 3.6 98 0.1 W 7 9 4 5 1011.5 1011.4 0.2
13/06:30am 4.2 1.2 3.9 98 0.1 WNW 9 11 5 6 1011.3 1011.2 0.2
13/06:00am 4.5 0.8 4.2 98 0.1 WSW 13 17 7 9 1010.9 1010.8 0.2
13/05:31am 4.8 1.1 4.5 98 0.1 W 13 17 7 9 1010.8 1010.7 0.2
13/05:30am 4.8 1.1 4.5 98 0.1 W 13 20 7 11 1010.8 1010.7 0.2
13/05:16am 4.9 0.1 4.6 98 0.1 W 19 24 10 13 1010.7 1010.6 0.2
13/05:09am 5.0 0.2 4.7 98 0.1 W 19 24 10 13 1010.7 1010.6 0.2
13/05:00am 5.0 0.0 4.7 98 0.1 W 20 24 11 13 1010.7 1010.6 0.2
13/04:52am 5.1 0.7 4.8 98 0.1 W 17 20 9 11 1010.6 1010.5 0.2
13/04:32am 5.1 0.3 4.8 98 0.1 W 19 24 10 13 1010.5 1010.4 0.2
13/04:30am 5.0 0.0 4.7 98 0.1 W 20 24 11 13 1010.4 1010.3 0.2
13/04:24am 5.0 0.0 4.6 97 0.2 W 20 28 11 15 1010.4 1010.3 0.2
13/04:00am 5.1 0.1 4.7 97 0.2 W 20 24 11 13 1010.4 1010.3 0.2
13/03:30am 5.2 0.4 4.8 97 0.2 W 19 24 10 13 1010.4 1010.3 0.2
13/03:00am 4.9 0.5 4.6 98 0.1 W 17 20 9 11 1010.6 1010.5 0.2
13/02:30am 4.7 1.0 4.4 98 0.1 WNW 13 17 7 9 1010.7 1010.6 0.2
13/02:00am 4.6 1.2 4.2 97 0.2 W 11 13 6 7 1010.7 1010.6 0.2
13/01:30am 5.1 1.4 4.7 97 0.2 W 13 15 7 8 1011.0 1011.0 0.2
13/01:00am 5.4 1.8 5.0 97 0.2 W 13 17 7 9 1011.3 1011.2 0.2
13/12:30am 5.4 0.7 5.0 97 0.2 WSW 19 22 10 12 1011.7 1011.6 0.2
13/12:00am 5.5 1.2 5.1 97 0.2 WSW 17 24 9 13 1012.0 1012.0 0.2
 
Date/Time
EST
Temp
°C
App
Temp
°C
Dew
Point
°C
Rel
Hum
%
Delta-T
°C
Wind Press
QNH
hPa
Press
MSL
hPa
Rain since
9am
mm
Dir  Spd
km/h
Gust
km/h
Spd
kts
Gust
kts
12/11:36pm 4.7 0.2 4.3 97 0.2 W 17 20 9 11 1012.5 1012.4 0.2
12/11:30pm 4.0 -0.2 3.6 97 0.2 W 15 19 8 10 1012.6 1012.6 0.2
12/11:00pm 3.2 -0.9 2.5 95 0.3 W 13 15 7 8 1012.5 1012.4 0.2
12/10:30pm 3.5 -0.2 2.6 94 0.4 W 11 13 6 7 1012.6 1012.6 0.2
12/10:00pm 3.7 0.0 2.5 92 0.5 W 11 13 6 7 1012.8 1012.8 0.2
12/09:30pm 5.0 1.5 3.5 90 0.7 W 11 13 6 7 1012.9 1012.9 0.2
12/09:00pm 5.1 1.6 3.4 89 0.8 W 11 13 6 7 1012.8 1012.8 0.2
12/08:30pm 6.0 2.1 3.5 84 1.1 WSW 13 15 7 8 1012.7 1012.7 0.2
12/08:00pm 7.0 3.2 3.8 80 1.5 WSW 13 15 7 8 1012.7 1012.7 0.2
12/07:30pm 6.9 3.7 3.2 77 1.7 W 9 15 5 8 1012.6 1012.6 0.2
12/07:00pm 6.2 2.9 2.7 78 1.6 WSW 9 11 5 6 1012.4 1012.3 0.2
12/06:30pm 6.8 3.5 2.7 75 1.8 SSW 9 11 5 6 1012.3 1012.2 0.2
12/06:00pm 6.4 3.4 2.3 75 1.8 WSW 7 9 4 5 1012.0 1012.0 0.2
12/05:30pm 7.3 4.0 2.6 72 2.1 WSW 9 11 5 6 1011.9 1011.9 0.2
12/05:00pm 9.8 5.5 3.3 64 3.0 W 15 17 8 9 1011.8 1011.8 0.2
12/04:30pm 11.9 7.7 3.7 57 3.9 W 15 20 8 11 1011.7 1011.6 0.2
12/04:00pm 12.7 7.8 4.2 56 4.1 WNW 19 26 10 14 1011.7 1011.6 0.2
12/03:30pm 12.6 7.9 5.3 61 3.6 W 19 24 10 13 1011.8 1011.8 0.2
12/03:00pm 13.6 8.3 5.0 56 4.3 W 22 30 12 16 1011.8 1011.8 0.0
12/02:30pm 12.4 7.0 4.6 59 3.8 WNW 22 28 12 15 1012.0 1012.0 0.0
12/02:00pm 12.2 7.4 4.9 61 3.6 W 19 28 10 15 1012.3 1012.2 0.0
12/01:30pm 13.1 7.8 5.0 58 4.0 W 22 28 12 15 1012.5 1012.4 0.0
12/01:00pm 12.5 7.2 5.0 60 3.7 W 22 32 12 17 1012.9 1012.9 0.0
12/12:30pm 12.9 8.2 5.1 59 3.8 W 19 26 10 14 1013.4 1013.3 0.0
12/12:00pm 12.0 7.0 4.7 61 3.5 W 20 32 11 17 1013.8 1013.8 0.0
12/11:30am 12.9 8.3 6.7 66 3.2 WNW 20 26 11 14 1014.3 1014.3 0.0
12/11:00am 11.7 6.9 5.8 67 2.9 W 20 30 11 16 1014.8 1014.8 0.0
12/10:30am 11.5 7.1 6.6 72 2.5 W 19 24 10 13 1015.4 1015.4 0.0
12/10:00am 10.6 7.5 7.1 79 1.8 W 13 20 7 11 1015.7 1015.7 0.0

Other formats

Comma delimited format used in spreadsheet applications
http://www.bom.gov.au/fwo/IDN60801/IDN60801.95773.axf

JavaScript Object Notation format (JSON) in row-major order
http://www.bom.gov.au/fwo/IDN60801/IDN60801.95773.json

Data quality

Most of these data are generated automatically and are frequently updated. Quality checks on data are not normally performed. It is possible for incorrect values to appear. Refer to information at About Latest Weather Observations and please check the disclaimer before using these data.